createdAt,value
2019-04-11T00:00:45.941Z,0.00
2019-04-11T00:01:48.630Z,0.00
2019-04-11T00:02:45.684Z,0.00
2019-04-11T00:03:46.003Z,0.00
2019-04-11T00:04:46.341Z,0.00
2019-04-11T00:05:45.646Z,0.00
2019-04-11T00:06:45.679Z,0.00
2019-04-11T00:07:46.703Z,0.00
2019-04-11T00:08:45.985Z,0.00
2019-04-11T00:09:45.597Z,0.00
2019-04-11T00:10:45.588Z,0.00
2019-04-11T00:11:46.184Z,0.00
2019-04-11T00:12:46.402Z,0.00
2019-04-11T00:13:45.546Z,0.00
2019-04-11T00:14:46.913Z,0.00
2019-04-11T00:15:45.551Z,0.00
2019-04-11T00:16:45.682Z,0.00
2019-04-11T00:17:45.987Z,0.00
2019-04-11T00:18:45.480Z,0.00
2019-04-11T00:19:45.471Z,0.00
2019-04-11T00:20:46.467Z,0.00
2019-04-11T00:21:45.442Z,0.00
2019-04-11T00:22:45.852Z,0.00
2019-04-11T00:23:46.114Z,0.00
2019-04-11T00:24:45.403Z,0.00
2019-04-11T00:25:45.391Z,0.00
2019-04-11T00:26:46.518Z,0.00
2019-04-11T00:27:45.521Z,0.00
2019-04-11T00:28:45.822Z,0.00
2019-04-11T00:29:45.342Z,0.00
2019-04-11T00:30:45.342Z,0.00
2019-04-11T00:31:46.883Z,0.00
2019-04-11T00:32:45.571Z,0.00
2019-04-11T00:33:45.288Z,0.00
2019-04-11T00:34:45.274Z,0.00
2019-04-11T00:35:46.036Z,0.00
2019-04-11T00:36:46.148Z,0.00
2019-04-11T00:37:45.442Z,0.00
2019-04-11T00:38:45.731Z,0.00
2019-04-11T00:39:45.824Z,0.00
2019-04-11T00:40:45.830Z,0.00
2019-04-11T00:41:46.015Z,0.00
2019-04-11T00:42:45.194Z,0.00
2019-04-11T00:43:45.785Z,0.00
2019-04-11T00:44:45.283Z,0.00
2019-04-11T00:45:45.630Z,0.00
2019-04-11T00:46:45.119Z,0.00
2019-04-11T00:47:45.106Z,0.00
2019-04-11T00:48:46.102Z,0.00
2019-04-11T00:49:46.381Z,0.00
2019-04-11T00:50:45.461Z,0.00
2019-04-11T00:51:45.054Z,0.00
2019-04-11T00:52:45.518Z,0.00
2019-04-11T00:53:45.028Z,0.00
2019-04-11T00:54:45.015Z,0.00
2019-04-11T00:55:45.942Z,0.00
2019-04-11T00:56:44.989Z,0.00
2019-04-11T00:57:45.302Z,0.00
2019-04-11T00:58:45.675Z,0.00
2019-04-11T00:59:44.950Z,0.00
2019-04-11T01:00:45.082Z,0.00
2019-04-11T01:01:45.031Z,0.00
2019-04-11T01:02:45.457Z,0.00
2019-04-11T01:03:45.435Z,0.00
2019-04-11T01:04:45.360Z,0.00
2019-04-11T01:05:45.709Z,0.00
2019-04-11T01:06:44.859Z,0.00
2019-04-11T01:07:45.021Z,0.00
2019-04-11T01:08:46.013Z,0.00
2019-04-11T01:09:44.820Z,0.00
2019-04-11T01:10:45.641Z,0.00
2019-04-11T01:11:45.780Z,0.00
2019-04-11T01:12:44.890Z,0.00
2019-04-11T01:13:50.845Z,0.00
2019-04-11T01:14:44.774Z,0.00
2019-04-11T01:15:44.908Z,0.00
2019-04-11T01:16:45.068Z,0.00
2019-04-11T01:17:45.431Z,0.00
2019-04-11T01:18:44.701Z,0.00
2019-04-11T01:19:44.769Z,0.00
2019-04-11T01:20:44.675Z,0.00
2019-04-11T01:21:44.661Z,0.00
2019-04-11T01:22:44.648Z,0.00
2019-04-11T01:23:44.915Z,0.00
2019-04-11T01:24:44.623Z,0.00
2019-04-11T01:25:44.609Z,0.00
2019-04-11T01:26:45.515Z,0.00
2019-04-11T01:27:44.825Z,0.00
2019-04-11T01:28:44.949Z,0.00
2019-04-11T01:29:44.555Z,0.00
2019-04-11T01:30:45.116Z,0.00
2019-04-11T01:31:44.528Z,0.00
2019-04-11T01:32:44.514Z,0.00
2019-04-11T01:33:44.501Z,0.00
2019-04-11T01:34:44.650Z,0.00
2019-04-11T01:35:45.670Z,0.00
2019-04-11T01:36:45.061Z,0.00
2019-04-11T01:37:44.448Z,0.00
2019-04-11T01:38:44.433Z,0.00
2019-04-11T01:39:45.332Z,0.00
2019-04-11T01:40:45.575Z,0.00
2019-04-11T01:41:44.798Z,0.00
2019-04-11T01:42:44.379Z,0.00
2019-04-11T01:43:55.342Z,0.00
2019-04-11T01:44:45.840Z,0.00
2019-04-11T01:45:45.348Z,0.00
2019-04-11T01:46:44.488Z,0.00
2019-04-11T01:47:44.745Z,0.00
2019-04-11T01:48:44.299Z,0.00
2019-04-11T01:49:44.291Z,0.00
2019-04-11T01:50:45.262Z,0.00
2019-04-11T01:51:45.501Z,0.00
2019-04-11T01:52:44.601Z,0.00
2019-04-11T01:53:44.281Z,0.00
2019-04-11T01:54:44.217Z,0.00
2019-04-11T01:55:45.030Z,0.00
2019-04-11T01:56:45.339Z,0.00
2019-04-11T01:57:44.659Z,0.00
2019-04-11T01:58:44.213Z,0.00
2019-04-11T01:59:44.149Z,0.00
2019-04-11T02:00:44.163Z,0.00
2019-04-11T02:01:45.150Z,0.00
2019-04-11T02:02:44.412Z,0.00
2019-04-11T02:03:44.095Z,0.00
2019-04-11T02:04:44.082Z,0.00
2019-04-11T02:05:45.278Z,0.00
2019-04-11T02:06:44.054Z,0.00
2019-04-11T02:07:44.882Z,0.00
2019-04-11T02:08:44.028Z,0.00
2019-04-11T02:09:44.243Z,0.00
2019-04-11T02:10:45.239Z,0.00
2019-04-11T02:11:43.987Z,0.00
2019-04-11T02:12:43.974Z,0.00
2019-04-11T02:13:43.963Z,0.00
2019-04-11T02:14:43.969Z,0.00
2019-04-11T02:15:44.199Z,0.00
2019-04-11T02:16:43.919Z,0.00
2019-04-11T02:17:43.906Z,0.00
2019-04-11T02:18:43.892Z,0.00
2019-04-11T02:19:44.765Z,0.00
2019-04-11T02:20:43.869Z,0.00
2019-04-11T02:21:44.201Z,0.00
2019-04-11T02:22:43.839Z,0.00
2019-04-11T02:23:43.825Z,0.00
2019-04-11T02:24:43.844Z,0.00
2019-04-11T02:25:44.847Z,0.00
2019-04-11T02:26:45.770Z,0.00
2019-04-11T02:27:44.274Z,0.00
2019-04-11T02:28:44.626Z,0.00
2019-04-11T02:29:44.765Z,0.00
2019-04-11T02:30:45.939Z,0.00
2019-04-11T02:31:44.568Z,0.00
2019-04-11T02:32:45.457Z,0.00
2019-04-11T02:33:43.691Z,0.00
2019-04-11T02:34:43.938Z,0.00
2019-04-11T02:35:46.079Z,0.00
2019-04-11T02:36:44.930Z,0.00
2019-04-11T02:37:44.416Z,0.00
2019-04-11T02:38:44.050Z,0.00
2019-04-11T02:39:43.609Z,0.00
2019-04-11T02:40:45.294Z,0.00
2019-04-11T02:41:44.534Z,0.00
2019-04-11T02:42:45.494Z,0.00
2019-04-11T02:43:44.474Z,0.00
2019-04-11T02:44:59.838Z,0.00
2019-04-11T02:45:56.944Z,0.00
2019-04-11T02:46:53.157Z,0.00
2019-04-11T02:47:46.576Z,0.00
2019-04-11T02:48:44.939Z,0.00
2019-04-11T02:49:43.835Z,0.00
2019-04-11T02:50:43.580Z,0.00
2019-04-11T02:51:44.871Z,0.00
2019-04-11T02:52:44.476Z,0.00
2019-04-11T02:53:44.978Z,0.00
2019-04-11T02:54:45.044Z,0.00
2019-04-11T02:55:43.967Z,0.00
2019-04-11T02:56:45.081Z,0.00
2019-04-11T02:57:43.372Z,0.00
2019-04-11T02:58:44.202Z,0.00
2019-04-11T02:59:45.254Z,0.00
2019-04-11T03:00:44.947Z,0.00
2019-04-11T03:01:44.003Z,0.00
2019-04-11T03:02:44.448Z,0.00
2019-04-11T03:03:43.284Z,0.00
2019-04-11T03:04:43.957Z,0.00
2019-04-11T03:05:44.100Z,0.00
2019-04-11T03:06:43.928Z,0.00
2019-04-11T03:07:43.237Z,0.00
2019-04-11T03:08:43.750Z,0.00
2019-04-11T03:09:43.947Z,0.00
2019-04-11T03:10:45.196Z,0.00
2019-04-11T03:11:44.989Z,0.00
2019-04-11T03:12:43.850Z,0.00
2019-04-11T03:13:44.416Z,0.00
2019-04-11T03:15:00.745Z,0.00
2019-04-11T03:16:03.520Z,0.00
2019-04-11T03:16:56.375Z,0.00
2019-04-11T03:17:45.689Z,0.00
2019-04-11T03:19:02.417Z,0.00
2019-04-11T03:19:57.838Z,0.00
2019-04-11T03:20:49.731Z,0.00
2019-04-11T03:21:46.428Z,0.00
2019-04-11T03:22:44.730Z,0.00
2019-04-11T03:23:44.081Z,0.00
2019-04-11T03:24:43.559Z,0.00
2019-04-11T03:25:44.731Z,0.00
2019-04-11T03:26:43.596Z,0.00
2019-04-11T03:27:43.512Z,0.00
2019-04-11T03:28:49.038Z,0.00
2019-04-11T03:29:43.198Z,0.00
2019-04-11T03:31:06.919Z,0.00
2019-04-11T03:32:17.547Z,0.00
2019-04-11T03:33:52.484Z,0.00
2019-04-11T03:34:33.448Z,0.00
2019-04-11T03:35:51.906Z,0.00
2019-04-11T03:37:21.088Z,0.00
2019-04-11T03:38:08.588Z,0.00
2019-04-11T03:39:08.939Z,0.00
2019-04-11T03:39:59.289Z,0.00
2019-04-11T03:41:00.523Z,0.00
2019-04-11T03:41:59.393Z,0.00
2019-04-11T03:42:59.860Z,0.00
2019-04-11T03:43:57.065Z,0.00
2019-04-11T03:44:47.909Z,0.00
2019-04-11T03:46:01.501Z,0.00
2019-04-11T03:47:01.380Z,0.00
2019-04-11T03:48:00.922Z,0.00
2019-04-11T03:48:55.876Z,0.00
2019-04-11T03:49:51.407Z,0.00
2019-04-11T03:50:44.539Z,0.00
2019-04-11T03:51:43.627Z,0.00
2019-04-11T03:52:43.111Z,0.00
2019-04-11T03:53:43.176Z,0.00
2019-04-11T03:54:42.792Z,0.00
2019-04-11T03:55:43.389Z,0.00
2019-04-11T03:56:43.296Z,0.00
2019-04-11T03:57:42.535Z,0.00
2019-04-11T03:58:43.818Z,0.00
2019-04-11T03:59:43.789Z,0.00
2019-04-11T04:00:44.385Z,0.00
2019-04-11T04:01:44.247Z,0.00
2019-04-11T04:02:42.466Z,0.00
2019-04-11T04:03:42.664Z,0.00
2019-04-11T04:04:43.602Z,0.00
2019-04-11T04:05:44.415Z,0.00
2019-04-11T04:06:43.390Z,0.00
2019-04-11T04:07:42.400Z,0.00
2019-04-11T04:08:42.457Z,0.00
2019-04-11T04:09:43.818Z,0.00
2019-04-11T04:10:43.620Z,0.00
2019-04-11T04:11:42.799Z,0.00
2019-04-11T04:12:43.317Z,0.00
2019-04-11T04:13:42.834Z,0.00
2019-04-11T04:14:44.527Z,0.00
2019-04-11T04:15:55.879Z,0.00
2019-04-11T04:16:47.831Z,0.00
2019-04-11T04:17:43.462Z,0.00
2019-04-11T04:18:43.752Z,0.00
2019-04-11T04:19:43.766Z,0.00
2019-04-11T04:20:43.801Z,0.00
2019-04-11T04:21:42.922Z,0.00
2019-04-11T04:22:44.009Z,0.00
2019-04-11T04:23:43.244Z,0.00
2019-04-11T04:24:43.241Z,0.00
2019-04-11T04:25:44.974Z,0.00
2019-04-11T04:26:43.142Z,0.00
2019-04-11T04:27:42.938Z,0.00
2019-04-11T04:28:42.944Z,0.00
2019-04-11T04:29:46.744Z,0.00
2019-04-11T04:30:43.282Z,0.00
2019-04-11T04:31:42.517Z,0.00
2019-04-11T04:32:42.849Z,0.00
2019-04-11T04:33:42.991Z,0.00
2019-04-11T04:34:42.249Z,0.00
2019-04-11T04:35:42.923Z,0.00
2019-04-11T04:36:42.371Z,0.00
2019-04-11T04:37:43.330Z,0.00
2019-04-11T04:38:41.962Z,0.00
2019-04-11T04:39:43.469Z,0.00
2019-04-11T04:40:55.772Z,0.00
2019-04-11T04:41:49.503Z,0.00
2019-04-11T04:42:47.699Z,5.63
2019-04-11T04:43:43.737Z,5.63
2019-04-11T04:44:42.921Z,5.63
2019-04-11T04:45:57.906Z,5.63
2019-04-11T04:46:55.823Z,5.63
2019-04-11T04:47:47.790Z,5.63
2019-04-11T04:48:43.314Z,5.63
2019-04-11T04:49:43.496Z,11.25
2019-04-11T04:50:42.228Z,11.25
2019-04-11T04:51:43.514Z,11.25
2019-04-11T04:52:42.808Z,11.25
2019-04-11T04:53:43.029Z,11.25
2019-04-11T04:54:41.729Z,16.88
2019-04-11T04:55:43.409Z,16.88
2019-04-11T04:56:43.127Z,16.88
2019-04-11T04:57:42.956Z,16.88
2019-04-11T04:58:42.085Z,22.50
2019-04-11T04:59:42.563Z,22.50
2019-04-11T05:00:41.637Z,22.50
2019-04-11T05:01:43.770Z,28.13
2019-04-11T05:02:42.182Z,28.13
2019-04-11T05:03:42.392Z,28.13
2019-04-11T05:04:41.579Z,28.13
2019-04-11T05:05:42.457Z,33.75
2019-04-11T05:06:44.782Z,33.75
2019-04-11T05:07:44.092Z,33.75
2019-04-11T05:08:42.978Z,39.38
2019-04-11T05:09:42.631Z,39.38
2019-04-11T05:10:41.492Z,45.00
2019-04-11T05:11:42.390Z,45.00
2019-04-11T05:12:41.849Z,45.00
2019-04-11T05:13:44.691Z,50.63
2019-04-11T05:14:41.435Z,50.63
2019-04-11T05:15:42.156Z,50.63
2019-04-11T05:16:41.776Z,56.25
2019-04-11T05:17:43.577Z,56.25
2019-04-11T05:18:42.007Z,61.88
2019-04-11T05:19:42.391Z,61.88
2019-04-11T05:20:41.348Z,67.50
2019-04-11T05:21:41.457Z,67.50
2019-04-11T05:22:41.604Z,67.50
2019-04-11T05:23:41.767Z,73.13
2019-04-11T05:24:41.293Z,73.13
2019-04-11T05:25:42.471Z,78.75
2019-04-11T05:26:41.789Z,78.75
2019-04-11T05:27:41.919Z,78.75
2019-04-11T05:28:41.235Z,84.38
2019-04-11T05:29:41.763Z,84.38
2019-04-11T05:30:41.906Z,90.00
2019-04-11T05:31:41.197Z,90.00
2019-04-11T05:32:41.763Z,95.63
2019-04-11T05:33:41.317Z,95.63
2019-04-11T05:34:41.422Z,101.25
2019-04-11T05:35:41.696Z,101.25
2019-04-11T05:36:41.122Z,106.88
2019-04-11T05:37:41.111Z,106.88
2019-04-11T05:38:42.142Z,112.50
2019-04-11T05:39:42.362Z,112.50
2019-04-11T05:40:41.951Z,118.13
2019-04-11T05:41:44.776Z,118.13
2019-04-11T05:42:41.701Z,123.75
2019-04-11T05:43:41.735Z,129.38
2019-04-11T05:44:41.763Z,135.00
2019-04-11T05:45:42.187Z,140.63
2019-04-11T05:46:49.927Z,180.00
2019-04-11T05:47:40.967Z,213.75
2019-04-11T05:48:41.171Z,219.38
2019-04-11T05:49:42.456Z,191.25
2019-04-11T05:50:46.321Z,151.88
2019-04-11T05:51:45.650Z,146.25
2019-04-11T05:52:42.008Z,146.25
2019-04-11T05:53:41.663Z,151.88
2019-04-11T05:54:41.823Z,151.88
2019-04-11T05:55:43.230Z,157.50
2019-04-11T05:56:41.618Z,157.50
2019-04-11T05:57:41.478Z,163.13
2019-04-11T05:58:45.118Z,163.13
2019-04-11T05:59:41.193Z,163.13
2019-04-11T06:00:41.009Z,168.75
2019-04-11T06:01:40.780Z,168.75
2019-04-11T06:02:41.641Z,174.38
2019-04-11T06:03:43.249Z,174.38
2019-04-11T06:04:40.746Z,180.00
2019-04-11T06:05:40.876Z,180.00
2019-04-11T06:06:41.803Z,185.63
2019-04-11T06:07:43.594Z,185.63
2019-04-11T06:08:41.903Z,191.25
2019-04-11T06:09:41.664Z,191.25
2019-04-11T06:10:43.515Z,196.88
2019-04-11T06:11:41.167Z,196.88
2019-04-11T06:12:41.392Z,202.50
2019-04-11T06:13:40.713Z,202.50
2019-04-11T06:14:41.644Z,208.13
2019-04-11T06:15:42.820Z,208.13
2019-04-11T06:16:46.240Z,213.75
2019-04-11T06:17:40.772Z,219.38
2019-04-11T06:18:43.859Z,219.38
2019-04-11T06:19:41.566Z,219.38
2019-04-11T06:20:40.532Z,225.00
2019-04-11T06:21:40.515Z,225.00
2019-04-11T06:22:40.502Z,230.63
2019-04-11T06:23:40.488Z,230.63
2019-04-11T06:24:40.658Z,230.63
2019-04-11T06:25:43.557Z,236.25
2019-04-11T06:26:40.813Z,236.25
2019-04-11T06:27:42.516Z,241.88
2019-04-11T06:28:40.426Z,241.88
2019-04-11T06:29:41.046Z,247.50
2019-04-11T06:30:40.401Z,247.50
2019-04-11T06:31:40.453Z,247.50
2019-04-11T06:32:40.375Z,247.50
2019-04-11T06:33:40.720Z,247.50
2019-04-11T06:34:41.483Z,253.13
2019-04-11T06:35:40.338Z,253.13
2019-04-11T06:36:41.265Z,258.75
2019-04-11T06:37:41.252Z,258.75
2019-04-11T06:38:40.753Z,264.38
2019-04-11T06:39:40.288Z,264.38
2019-04-11T06:40:40.282Z,264.38
2019-04-11T06:41:40.915Z,270.00
2019-04-11T06:42:40.253Z,275.63
2019-04-11T06:43:40.485Z,275.63
2019-04-11T06:44:40.225Z,275.63
2019-04-11T06:45:40.214Z,281.25
2019-04-11T06:46:49.618Z,281.25
2019-04-11T06:47:40.994Z,286.88
2019-04-11T06:48:40.222Z,286.88
2019-04-11T06:49:40.164Z,292.50
2019-04-11T06:50:40.152Z,292.50
2019-04-11T06:51:40.139Z,298.13
2019-04-11T06:52:41.218Z,298.13
2019-04-11T06:53:40.116Z,303.75
2019-04-11T06:54:41.116Z,309.38
2019-04-11T06:55:40.099Z,309.38
2019-04-11T06:56:41.156Z,315.00
2019-04-11T06:57:40.419Z,315.00
2019-04-11T06:58:40.054Z,320.63
2019-04-11T06:59:40.710Z,320.63
2019-04-11T07:00:41.057Z,331.88
2019-04-11T07:01:40.520Z,326.25
2019-04-11T07:02:41.055Z,331.88
2019-04-11T07:03:40.611Z,331.88
2019-04-11T07:04:40.001Z,337.50
2019-04-11T07:05:40.622Z,337.50
2019-04-11T07:06:40.002Z,343.13
2019-04-11T07:07:40.920Z,343.13
2019-04-11T07:08:40.597Z,354.38
2019-04-11T07:09:39.936Z,348.75
2019-04-11T07:10:39.911Z,348.75
2019-04-11T07:11:40.492Z,348.75
2019-04-11T07:12:40.750Z,354.38
2019-04-11T07:13:39.877Z,360.00
2019-04-11T07:14:39.916Z,360.00
2019-04-11T07:15:39.895Z,376.88
2019-04-11T07:16:40.430Z,405.00
2019-04-11T07:17:40.424Z,405.00
2019-04-11T07:18:40.033Z,393.75
2019-04-11T07:19:39.808Z,388.13
2019-04-11T07:20:39.798Z,388.13
2019-04-11T07:21:39.814Z,399.38
2019-04-11T07:22:40.868Z,410.63
2019-04-11T07:23:40.535Z,405.00
2019-04-11T07:24:39.757Z,444.38
2019-04-11T07:25:39.744Z,607.50
2019-04-11T07:26:39.733Z,691.88
2019-04-11T07:27:40.871Z,697.50
2019-04-11T07:28:39.714Z,871.88
2019-04-11T07:29:40.092Z,1001.25
2019-04-11T07:30:39.718Z,1063.13
2019-04-11T07:31:39.872Z,1209.38
2019-04-11T07:32:40.617Z,1276.88
2019-04-11T07:33:40.849Z,1293.75
2019-04-11T07:34:40.198Z,1276.88
2019-04-11T07:35:39.878Z,1271.25
2019-04-11T07:36:40.589Z,1310.63
2019-04-11T07:37:40.670Z,1344.38
2019-04-11T07:38:39.638Z,1333.13
2019-04-11T07:39:42.332Z,1383.75
2019-04-11T07:40:41.204Z,1485.00
2019-04-11T07:41:41.233Z,1541.25
2019-04-11T07:42:40.977Z,1552.50
2019-04-11T07:43:39.609Z,1575.00
2019-04-11T07:44:40.755Z,1518.75
2019-04-11T07:45:40.688Z,1501.88
2019-04-11T07:46:40.687Z,1575.00
2019-04-11T07:47:39.591Z,1591.88
2019-04-11T07:48:40.330Z,1563.75
2019-04-11T07:49:40.772Z,1670.63
2019-04-11T07:50:39.953Z,1648.13
2019-04-11T07:51:40.684Z,1665.00
2019-04-11T07:52:39.575Z,1726.88
2019-04-11T07:53:39.570Z,1698.75
2019-04-11T07:54:39.566Z,1687.50
2019-04-11T07:55:39.563Z,1732.50
2019-04-11T07:56:39.725Z,1721.25
2019-04-11T07:57:40.357Z,1766.25
2019-04-11T07:58:39.845Z,1800.00
2019-04-11T07:59:39.764Z,1766.25
2019-04-11T08:00:45.685Z,1811.25
2019-04-11T08:01:40.384Z,1878.75
2019-04-11T08:02:39.892Z,1783.13
2019-04-11T08:03:40.029Z,1670.63
2019-04-11T08:04:40.744Z,1659.38
2019-04-11T08:05:40.872Z,1755.00
2019-04-11T08:06:39.537Z,1873.13
2019-04-11T08:07:40.409Z,1951.88
2019-04-11T08:08:39.535Z,1985.63
2019-04-11T08:09:39.648Z,1923.75
2019-04-11T08:10:39.532Z,1940.63
2019-04-11T08:11:40.077Z,1980.00
2019-04-11T08:12:39.531Z,1985.63
2019-04-11T08:13:39.537Z,2002.50
2019-04-11T08:14:40.358Z,1951.88
2019-04-11T08:15:39.932Z,1985.63
2019-04-11T08:16:39.529Z,1985.63
2019-04-11T08:17:42.502Z,1991.25
2019-04-11T08:18:39.526Z,1985.63
2019-04-11T08:19:40.656Z,2047.50
2019-04-11T08:20:39.608Z,2137.50
2019-04-11T08:21:39.527Z,2115.00
2019-04-11T08:22:39.527Z,2070.00
2019-04-11T08:23:40.131Z,2109.38
2019-04-11T08:24:40.528Z,2103.75
2019-04-11T08:25:39.835Z,2019.38
2019-04-11T08:26:39.528Z,1991.25
2019-04-11T08:27:52.123Z,1980.00
2019-04-11T08:28:40.704Z,1957.50
2019-04-11T08:29:39.529Z,2058.75
2019-04-11T08:30:40.120Z,2075.63
2019-04-11T08:31:40.268Z,2064.38
2019-04-11T08:32:40.044Z,2013.75
2019-04-11T08:33:40.517Z,1918.13
2019-04-11T08:34:39.698Z,2103.75
2019-04-11T08:35:40.224Z,2227.50
2019-04-11T08:36:40.107Z,2171.25
2019-04-11T08:37:40.012Z,2210.63
2019-04-11T08:38:40.492Z,2103.75
2019-04-11T08:39:39.563Z,2070.00
2019-04-11T08:40:39.538Z,2120.63
2019-04-11T08:41:39.934Z,2171.25
2019-04-11T08:42:40.710Z,2205.00
2019-04-11T08:43:39.541Z,2137.50
2019-04-11T08:44:39.697Z,2182.50
2019-04-11T08:45:40.335Z,2188.13
2019-04-11T08:46:39.546Z,2160.00
2019-04-11T08:47:46.813Z,2283.75
2019-04-11T08:48:39.553Z,2289.38
2019-04-11T08:49:39.781Z,2266.88
2019-04-11T08:50:40.605Z,2317.50
2019-04-11T08:51:39.567Z,2390.63
2019-04-11T08:52:40.299Z,2216.25
2019-04-11T08:53:40.672Z,2143.13
2019-04-11T08:54:39.742Z,2317.50
2019-04-11T08:55:48.559Z,2148.75
2019-04-11T08:56:39.566Z,2250.00
2019-04-11T08:57:40.930Z,2205.00
2019-04-11T08:58:40.610Z,2306.25
2019-04-11T08:59:39.802Z,2289.38
2019-04-11T09:00:40.199Z,2205.00
2019-04-11T09:01:40.272Z,2255.63
2019-04-11T09:02:40.793Z,2295.00
2019-04-11T09:03:39.939Z,2328.75
2019-04-11T09:04:40.014Z,2390.63
2019-04-11T09:05:40.814Z,2396.25
2019-04-11T09:06:40.878Z,2351.25
2019-04-11T09:07:39.597Z,2311.88
2019-04-11T09:08:40.613Z,2317.50
2019-04-11T09:09:39.781Z,2368.13
2019-04-11T09:10:40.062Z,2407.50
2019-04-11T09:11:40.687Z,2435.63
2019-04-11T09:12:39.614Z,2430.00
2019-04-11T09:13:39.785Z,2401.88
2019-04-11T09:14:40.049Z,2430.00
2019-04-11T09:15:39.625Z,2452.50
2019-04-11T09:16:39.731Z,2373.75
2019-04-11T09:17:41.775Z,2289.38
2019-04-11T09:18:39.635Z,2379.38
2019-04-11T09:19:39.639Z,2356.88
2019-04-11T09:20:40.186Z,2300.63
2019-04-11T09:21:40.407Z,2289.38
2019-04-11T09:22:39.650Z,2283.75
2019-04-11T09:23:39.769Z,2345.63
2019-04-11T09:24:40.883Z,2379.38
2019-04-11T09:25:39.662Z,2283.75
2019-04-11T09:26:40.990Z,2345.63
2019-04-11T09:27:40.537Z,2025.00
2019-04-11T09:28:39.828Z,731.25
2019-04-11T09:29:39.933Z,2385.00
2019-04-11T09:30:40.878Z,2525.63
2019-04-11T09:31:39.682Z,2514.38
2019-04-11T09:32:40.360Z,2486.25
2019-04-11T09:33:39.780Z,2362.50
2019-04-11T09:34:39.762Z,2435.63
2019-04-11T09:35:39.696Z,2570.63
2019-04-11T09:36:40.826Z,2486.25
2019-04-11T09:37:40.080Z,2272.50
2019-04-11T09:38:40.232Z,2491.88
2019-04-11T09:39:39.711Z,2553.75
2019-04-11T09:40:39.714Z,2593.13
2019-04-11T09:41:40.672Z,2598.75
2019-04-11T09:42:39.721Z,1080.00
2019-04-11T09:43:40.143Z,2441.25
2019-04-11T09:44:39.730Z,2542.50
2019-04-11T09:45:39.733Z,2520.00
2019-04-11T09:46:40.751Z,2688.75
2019-04-11T09:47:40.409Z,2711.25
2019-04-11T09:48:40.084Z,2576.25
2019-04-11T09:49:39.747Z,2525.63
2019-04-11T09:50:40.591Z,596.25
2019-04-11T09:51:40.300Z,556.88
2019-04-11T09:52:40.879Z,562.50
2019-04-11T09:53:40.902Z,590.63
2019-04-11T09:54:40.065Z,618.75
2019-04-11T09:55:39.761Z,759.38
2019-04-11T09:56:39.763Z,675.00
2019-04-11T09:57:39.763Z,680.63
2019-04-11T09:58:39.962Z,703.13
2019-04-11T09:59:39.798Z,630.00
2019-04-11T10:00:40.913Z,596.25
2019-04-11T10:01:40.786Z,601.88
2019-04-11T10:02:39.794Z,641.25
2019-04-11T10:03:40.870Z,658.13
2019-04-11T10:04:39.747Z,641.25
2019-04-11T10:05:40.646Z,618.75
2019-04-11T10:06:40.905Z,624.38
2019-04-11T10:07:39.735Z,641.25
2019-04-11T10:08:39.884Z,686.25
2019-04-11T10:09:39.984Z,697.50
2019-04-11T10:10:41.897Z,725.63
2019-04-11T10:11:40.126Z,748.13
2019-04-11T10:12:40.516Z,776.25
2019-04-11T10:13:40.703Z,804.38
2019-04-11T10:14:39.843Z,900.00
2019-04-11T10:15:39.808Z,815.63
2019-04-11T10:16:40.133Z,793.13
2019-04-11T10:17:40.243Z,776.25
2019-04-11T10:18:41.144Z,787.50
2019-04-11T10:19:40.205Z,849.38
2019-04-11T10:20:40.479Z,1068.75
2019-04-11T10:21:39.668Z,2379.38
2019-04-11T10:22:40.372Z,945.00
2019-04-11T10:23:40.823Z,753.75
2019-04-11T10:24:40.774Z,765.00
2019-04-11T10:25:39.646Z,2514.38
2019-04-11T10:26:40.365Z,2531.25
2019-04-11T10:27:40.629Z,2581.88
2019-04-11T10:28:39.632Z,1878.75
2019-04-11T10:29:39.846Z,2745.00
2019-04-11T10:30:39.905Z,2643.75
2019-04-11T10:31:39.623Z,2615.63
2019-04-11T10:32:39.619Z,2655.00
2019-04-11T10:33:39.616Z,2649.38
2019-04-11T10:34:39.661Z,2688.75
2019-04-11T10:35:40.686Z,2716.88
2019-04-11T10:36:39.612Z,1636.88
2019-04-11T10:37:40.166Z,1147.50
2019-04-11T10:38:40.425Z,2846.25
2019-04-11T10:39:39.675Z,2733.75
2019-04-11T10:40:39.924Z,2902.50
2019-04-11T10:41:40.050Z,2851.88
2019-04-11T10:42:39.611Z,2486.25
2019-04-11T10:43:40.404Z,2497.50
2019-04-11T10:44:40.336Z,2795.63
2019-04-11T10:45:39.616Z,2745.00
2019-04-11T10:46:39.728Z,2373.75
2019-04-11T10:47:40.779Z,1063.13
2019-04-11T10:48:42.533Z,961.88
2019-04-11T10:49:39.627Z,894.38
2019-04-11T10:50:40.319Z,832.50
2019-04-11T10:51:40.775Z,781.88
2019-04-11T10:52:39.629Z,810.00
2019-04-11T10:53:39.628Z,1243.13
2019-04-11T10:54:40.740Z,2536.88
2019-04-11T10:55:39.887Z,2626.88
2019-04-11T10:56:39.633Z,2469.38
2019-04-11T10:57:40.378Z,2795.63
2019-04-11T10:58:40.637Z,1316.25
2019-04-11T10:59:40.696Z,2109.38
2019-04-11T11:00:39.772Z,2491.88
2019-04-11T11:01:40.188Z,2373.75
2019-04-11T11:02:39.793Z,1591.88
2019-04-11T11:03:39.622Z,1181.25
2019-04-11T11:04:40.892Z,2182.50
2019-04-11T11:05:40.140Z,2722.50
2019-04-11T11:06:39.898Z,1980.00
2019-04-11T11:07:40.568Z,2475.00
2019-04-11T11:08:39.848Z,2531.25
2019-04-11T11:09:39.627Z,2604.38
2019-04-11T11:10:39.763Z,2508.75
2019-04-11T11:11:40.765Z,1164.38
2019-04-11T11:12:39.633Z,2525.63
2019-04-11T11:13:40.714Z,2486.25
2019-04-11T11:14:39.645Z,2491.88
2019-04-11T11:15:39.902Z,2508.75
2019-04-11T11:16:43.794Z,2553.75
2019-04-11T11:18:00.979Z,2531.25
2019-04-11T11:19:02.872Z,2649.38
2019-04-11T11:19:51.807Z,2677.50
2019-04-11T11:20:45.478Z,2643.75
2019-04-11T11:21:39.948Z,2604.38
2019-04-11T11:22:41.526Z,2570.63
2019-04-11T11:23:40.709Z,2604.38
2019-04-11T11:24:40.621Z,2638.13
2019-04-11T11:25:44.438Z,2621.25
2019-04-11T11:26:41.034Z,2593.13
2019-04-11T11:27:39.684Z,2559.38
2019-04-11T11:28:39.689Z,2553.75
2019-04-11T11:29:40.417Z,2621.25
2019-04-11T11:30:39.963Z,2598.75
2019-04-11T11:31:40.828Z,2570.63
2019-04-11T11:32:39.710Z,2542.50
2019-04-11T11:33:40.590Z,2424.38
2019-04-11T11:34:41.001Z,2430.00
2019-04-11T11:35:40.967Z,2441.25
2019-04-11T11:36:39.730Z,2548.13
2019-04-11T11:37:39.818Z,2632.50
2019-04-11T11:38:39.753Z,2660.63
2019-04-11T11:39:39.745Z,2649.38
2019-04-11T11:40:41.663Z,2660.63
2019-04-11T11:41:40.597Z,2677.50
2019-04-11T11:42:39.764Z,2705.63
2019-04-11T11:43:39.764Z,2160.00
2019-04-11T11:44:39.770Z,2446.88
2019-04-11T11:45:39.778Z,1198.13
2019-04-11T11:46:40.418Z,1164.38
2019-04-11T11:47:41.454Z,2542.50
2019-04-11T11:48:39.814Z,2531.25
2019-04-11T11:49:48.794Z,2542.50
2019-04-11T11:50:39.793Z,2452.50
2019-04-11T11:51:39.796Z,2542.50
2019-04-11T11:52:39.801Z,2615.63
2019-04-11T11:53:40.570Z,2593.13
2019-04-11T11:54:39.867Z,2508.75
2019-04-11T11:55:41.158Z,2520.00
2019-04-11T11:56:40.273Z,2536.88
2019-04-11T11:57:39.818Z,2497.50
2019-04-11T11:58:42.348Z,2446.88
2019-04-11T11:59:40.689Z,2407.50
2019-04-11T12:00:40.752Z,2458.13
2019-04-11T12:01:42.272Z,2593.13
2019-04-11T12:02:39.841Z,2733.75
2019-04-11T12:03:40.738Z,2795.63
2019-04-11T12:04:40.509Z,2750.63
2019-04-11T12:05:45.591Z,1597.50
2019-04-11T12:06:40.884Z,2683.13
2019-04-11T12:07:40.948Z,1040.63
2019-04-11T12:08:45.334Z,1040.63
2019-04-11T12:09:39.863Z,2503.13
2019-04-11T12:10:39.868Z,967.50
2019-04-11T12:11:40.030Z,860.63
2019-04-11T12:12:40.059Z,860.63
2019-04-11T12:13:40.755Z,2356.88
2019-04-11T12:14:43.183Z,2458.13
2019-04-11T12:15:39.875Z,2379.38
2019-04-11T12:16:39.876Z,2424.38
2019-04-11T12:17:40.559Z,2413.13
2019-04-11T12:18:44.920Z,2401.88
2019-04-11T12:19:47.628Z,2407.50
2019-04-11T12:20:44.451Z,2334.38
2019-04-11T12:21:40.972Z,2328.75
2019-04-11T12:22:40.211Z,2317.50
2019-04-11T12:23:49.512Z,2368.13
2019-04-11T12:24:40.529Z,2452.50
2019-04-11T12:25:40.922Z,2356.88
2019-04-11T12:26:40.830Z,2317.50
2019-04-11T12:27:40.115Z,2351.25
2019-04-11T12:28:39.899Z,2345.63
2019-04-11T12:29:41.251Z,2396.25
2019-04-11T12:30:39.946Z,2441.25
2019-04-11T12:31:39.905Z,2514.38
2019-04-11T12:32:40.940Z,2542.50
2019-04-11T12:33:39.912Z,2458.13
2019-04-11T12:34:41.005Z,2362.50
2019-04-11T12:35:40.141Z,1535.63
2019-04-11T12:36:46.622Z,945.00
2019-04-11T12:37:41.245Z,916.88
2019-04-11T12:38:39.921Z,1181.25
2019-04-11T12:39:39.922Z,1068.75
2019-04-11T12:40:39.921Z,2030.63